Time;durP1;ratioP1;P1;durP2;ratioP2;P2;SDS_P1;SDS_P2;PMS_P1;PMS_P2;Temp;Humidity;BMP_temperature;BMP_pressure;BME280_temperature;BME280_humidity;BME280_pressure;Samples;Min_cycle;Max_cycle;Signal;HPM_P1;HPM_P2
2023/12/12 00:00:19;;;;;;;11.83;2.40;;;6.50;99.90;;;;;;5096573;28;20400;-73
2023/12/12 00:02:45;;;;;;;11.53;2.10;;;6.50;99.90;;;;;;5096455;28;20051;-73
2023/12/12 00:05:13;;;;;;;10.13;2.43;;;6.40;99.90;;;;;;5096323;28;20298;-72
2023/12/12 00:07:39;;;;;;;7.37;2.33;;;6.40;99.90;;;;;;5096422;28;20055;-73
2023/12/12 00:10:05;;;;;;;10.67;1.87;;;6.40;99.90;;;;;;5096653;28;20275;-72
2023/12/12 00:12:31;;;;;;;9.80;2.00;;;6.40;99.90;;;;;;5096330;28;20286;-73
2023/12/12 00:14:57;;;;;;;10.13;2.13;;;6.30;99.90;;;;;;5096292;28;20274;-72
2023/12/12 00:17:23;;;;;;;9.47;1.73;;;6.30;99.90;;;;;;5096227;28;20817;-72
2023/12/12 00:19:48;;;;;;;8.50;2.03;;;6.30;99.90;;;;;;5095226;28;20048;-73
2023/12/12 00:22:14;;;;;;;9.77;2.47;;;6.20;99.90;;;;;;5096171;28;20044;-72
2023/12/12 00:24:40;;;;;;;17.30;2.37;;;6.20;99.90;;;;;;5095930;28;20062;-73
2023/12/12 00:27:05;;;;;;;9.30;2.53;;;6.20;99.90;;;;;;5096791;28;20052;-73
2023/12/12 00:29:35;;;;;;;9.97;2.80;;;6.20;99.90;;;;;;5094133;28;20472;-73
2023/12/12 00:32:01;;;;;;;11.50;2.17;;;6.20;99.90;;;;;;5096089;28;20093;-73
2023/12/12 00:34:27;;;;;;;11.20;2.90;;;6.20;99.90;;;;;;5095454;28;20290;-73
2023/12/12 00:36:53;;;;;;;11.07;2.40;;;6.20;99.90;;;;;;5094468;28;20290;-73
2023/12/12 00:39:18;;;;;;;11.67;3.30;;;6.20;99.90;;;;;;5095495;28;20117;-73
2023/12/12 00:41:44;;;;;;;11.47;3.70;;;6.10;99.90;;;;;;5094233;28;20067;-73
2023/12/12 00:44:10;;;;;;;7.17;2.57;;;6.00;99.90;;;;;;5095620;28;20097;-73
2023/12/12 00:46:35;;;;;;;14.63;2.97;;;6.00;99.90;;;;;;5094418;28;20036;-73
2023/12/12 00:49:01;;;;;;;14.33;2.57;;;6.00;99.90;;;;;;5094671;28;20048;-73
2023/12/12 00:51:27;;;;;;;7.90;2.47;;;5.90;99.90;;;;;;5095425;28;20044;-73
2023/12/12 00:53:52;;;;;;;15.63;2.23;;;5.90;99.90;;;;;;5095802;28;20400;-73
2023/12/12 00:56:18;;;;;;;14.17;2.60;;;5.90;99.90;;;;;;5095450;28;20044;-73
2023/12/12 00:58:44;;;;;;;15.67;3.20;;;5.80;99.90;;;;;;5095416;28;20104;-73
2023/12/12 01:01:12;;;;;;;17.70;3.43;;;5.90;99.90;;;;;;5095907;28;20048;-73
2023/12/12 01:03:38;;;;;;;9.50;2.70;;;5.70;99.90;;;;;;5095371;28;20101;-73
2023/12/12 01:06:04;;;;;;;11.30;2.23;;;5.70;99.90;;;;;;5094003;28;20309;-73
2023/12/12 01:08:30;;;;;;;9.80;2.83;;;5.70;99.90;;;;;;5095113;28;20282;-73
2023/12/12 01:10:55;;;;;;;8.13;2.53;;;5.70;99.90;;;;;;5095051;28;20356;-73
2023/12/12 01:13:21;;;;;;;10.77;3.17;;;5.70;99.90;;;;;;5095678;28;20075;-73
2023/12/12 01:15:47;;;;;;;10.87;2.73;;;;;;;;;;5095099;28;20051;-73
2023/12/12 01:18:13;;;;;;;12.60;2.80;;;5.50;99.90;;;;;;5095043;28;20040;-73
2023/12/12 01:20:38;;;;;;;12.17;3.33;;;5.60;99.90;;;;;;5095532;28;20281;-73
2023/12/12 01:23:04;;;;;;;18.73;2.60;;;5.60;99.90;;;;;;5077955;28;20148;-73
2023/12/12 01:25:31;;;;;;;12.50;2.53;;;5.50;99.90;;;;;;5094476;28;20047;-73
2023/12/12 01:27:57;;;;;;;12.30;2.63;;;5.50;99.90;;;;;;5094861;28;20396;-73
2023/12/12 01:30:22;;;;;;;12.83;3.20;;;5.60;99.90;;;;;;5094788;28;20282;-73
2023/12/12 01:32:48;;;;;;;7.10;2.17;;;5.50;99.90;;;;;;5094732;28;20048;-73
2023/12/12 01:35:14;;;;;;;12.23;2.20;;;5.60;99.90;;;;;;5094734;28;20036;-73
2023/12/12 01:37:40;;;;;;;13.47;2.90;;;5.60;99.90;;;;;;5094723;28;20047;-73
2023/12/12 01:40:08;;;;;;;14.57;2.17;;;5.60;99.90;;;;;;5094011;28;20391;-73
2023/12/12 01:42:33;;;;;;;10.70;2.20;;;5.60;99.90;;;;;;5094632;28;20499;-73
2023/12/12 01:44:59;;;;;;;9.07;2.00;;;5.60;99.90;;;;;;5094399;28;20294;-73
2023/12/12 01:47:26;;;;;;;13.27;2.30;;;5.60;99.90;;;;;;5094441;28;20040;-73
2023/12/12 01:49:52;;;;;;;10.90;2.17;;;5.60;99.90;;;;;;5093479;28;20400;-73
2023/12/12 01:52:20;;;;;;;17.20;2.83;;;5.60;99.90;;;;;;5094444;28;20314;-73
2023/12/12 01:54:47;;;;;;;8.93;2.10;;;5.40;99.90;;;;;;5094877;28;20286;-73
2023/12/12 01:57:17;;;;;;;6.23;2.30;;;5.50;99.90;;;;;;5093488;28;20310;-73
2023/12/12 01:59:47;;;;;;;12.93;2.53;;;5.40;99.90;;;;;;5094876;28;20282;-73
2023/12/12 02:02:16;;;;;;;8.33;2.50;;;5.40;99.90;;;;;;5095203;28;20288;-73
2023/12/12 02:04:43;;;;;;;14.03;2.60;;;5.40;99.90;;;;;;5094193;28;20363;-72
2023/12/12 02:07:09;;;;;;;10.03;2.30;;;5.40;99.90;;;;;;5093812;28;20278;-73
2023/12/12 02:09:35;;;;;;;11.77;3.07;;;5.30;99.90;;;;;;5094711;28;20282;-73
2023/12/12 02:12:01;;;;;;;11.97;2.70;;;5.30;99.90;;;;;;5093425;28;20299;-73
2023/12/12 02:14:27;;;;;;;9.03;2.10;;;5.30;99.90;;;;;;5094125;28;20602;-72
2023/12/12 02:16:53;;;;;;;10.87;2.43;;;5.30;99.90;;;;;;5093051;28;20071;-73
2023/12/12 02:19:19;;;;;;;11.13;2.83;;;5.30;99.90;;;;;;5094328;28;20044;-72
2023/12/12 02:21:44;;;;;;;16.00;3.17;;;5.30;99.90;;;;;;5093921;28;20761;-73
2023/12/12 02:24:10;;;;;;;10.23;3.33;;;5.20;99.90;;;;;;5093200;28;20040;-73
2023/12/12 02:26:36;;;;;;;19.13;3.90;;;5.20;99.90;;;;;;5093599;28;20044;-72
2023/12/12 02:29:02;;;;;;;18.63;3.33;;;5.20;99.90;;;;;;5093684;28;20044;-73
2023/12/12 02:31:28;;;;;;;12.83;3.50;;;5.10;99.90;;;;;;5094248;28;20044;-73
2023/12/12 02:33:54;;;;;;;11.57;3.63;;;5.10;99.90;;;;;;5092710;28;20626;-73
2023/12/12 02:36:21;;;;;;;15.33;4.17;;;5.20;99.90;;;;;;5093440;28;20048;-73
2023/12/12 02:38:46;;;;;;;9.40;3.85;;;5.20;99.90;;;;;;5093404;28;20078;-73
2023/12/12 02:41:13;;;;;;;17.90;4.27;;;5.20;99.90;;;;;;5093416;28;20488;-73
2023/12/12 02:43:38;;;;;;;12.37;4.33;;;5.10;99.90;;;;;;5092525;28;20130;-73
2023/12/12 02:46:04;;;;;;;18.80;4.10;;;5.10;99.90;;;;;;5094161;28;20389;-73
2023/12/12 02:48:30;;;;;;;18.83;4.23;;;5.00;99.90;;;;;;5093686;28;20047;-73
2023/12/12 02:50:55;;;;;;;10.47;4.00;;;5.00;99.90;;;;;;5093697;28;20151;-74
2023/12/12 02:53:21;;;;;;;13.93;4.27;;;5.00;99.90;;;;;;5095608;28;20056;-73
2023/12/12 02:55:47;;;;;;;15.43;4.60;;;5.00;99.90;;;;;;5097738;28;20105;-73
2023/12/12 02:58:13;;;;;;;14.17;4.20;;;5.10;99.90;;;;;;5097733;28;20052;-73
2023/12/12 03:00:38;;;;;;;14.33;4.47;;;5.10;99.90;;;;;;5098057;28;20484;-73
2023/12/12 03:03:04;;;;;;;13.30;3.63;;;5.10;99.90;;;;;;5096694;28;20036;-73
2023/12/12 03:05:30;;;;;;;10.60;3.67;;;5.10;99.90;;;;;;5096364;28;20089;-73
2023/12/12 03:07:56;;;;;;;14.75;3.40;;;5.10;99.90;;;;;;5097662;28;20052;-73
2023/12/12 03:10:22;;;;;;;13.27;3.60;;;5.10;99.90;;;;;;5097862;28;20044;-73
2023/12/12 03:12:47;;;;;;;11.30;3.47;;;5.20;99.90;;;;;;5097493;28;20593;-73
2023/12/12 03:15:13;;;;;;;11.70;3.70;;;5.10;99.90;;;;;;5097754;28;20040;-73
2023/12/12 03:17:39;;;;;;;15.57;3.90;;;5.20;99.90;;;;;;5097614;28;20093;-73
2023/12/12 03:20:05;;;;;;;7.50;3.43;;;5.20;99.90;;;;;;5096393;28;20044;-73
2023/12/12 03:22:31;;;;;;;12.25;3.58;;;5.20;99.90;;;;;;5097866;28;20097;-73
2023/12/12 03:24:56;;;;;;;12.50;4.00;;;5.20;99.90;;;;;;5096512;28;20481;-73
2023/12/12 03:27:23;;;;;;;8.23;3.33;;;5.20;99.90;;;;;;5096275;28;20054;-73
2023/12/12 03:29:48;;;;;;;7.88;2.67;;;5.20;99.90;;;;;;5097251;28;20048;-73
2023/12/12 03:32:14;;;;;;;15.13;3.50;;;5.10;99.90;;;;;;5097073;28;20097;-73
2023/12/12 03:34:40;;;;;;;10.80;3.50;;;5.10;99.90;;;;;;5097127;28;20046;-73
2023/12/12 03:37:05;;;;;;;12.20;3.40;;;5.10;99.90;;;;;;5097780;28;20139;-73
2023/12/12 03:39:31;;;;;;;7.70;3.63;;;5.10;99.90;;;;;;5097512;28;20048;-73
2023/12/12 03:41:57;;;;;;;14.40;3.60;;;5.10;99.90;;;;;;5096894;28;20040;-73
2023/12/12 03:44:23;;;;;;;16.53;4.13;;;5.10;99.90;;;;;;5096256;28;20060;-73
2023/12/12 03:46:48;;;;;;;13.93;3.50;;;5.10;99.90;;;;;;5096451;28;20120;-73
2023/12/12 03:49:14;;;;;;;11.77;3.90;;;5.20;99.90;;;;;;5097086;28;20051;-73
2023/12/12 03:51:40;;;;;;;13.00;3.40;;;5.20;99.90;;;;;;5095858;28;20097;-73
2023/12/12 03:54:05;;;;;;;11.63;3.67;;;5.20;99.90;;;;;;5096646;28;20098;-73
2023/12/12 03:56:31;;;;;;;11.23;3.57;;;5.20;99.90;;;;;;5096317;28;20140;-73
2023/12/12 03:58:59;;;;;;;9.57;4.70;;;5.20;99.90;;;;;;5096666;28;20060;-73
2023/12/12 04:01:25;;;;;;;9.32;3.63;;;5.10;99.90;;;;;;5096538;28;20048;-73
2023/12/12 04:03:50;;;;;;;11.33;3.50;;;5.20;99.90;;;;;;5095866;28;20070;-73
2023/12/12 04:06:16;;;;;;;10.73;3.67;;;5.20;99.90;;;;;;5096430;28;20040;-73
2023/12/12 04:08:41;;;;;;;10.43;3.03;;;5.20;99.90;;;;;;5095497;28;20390;-73
2023/12/12 04:11:07;;;;;;;10.33;3.13;;;5.20;99.90;;;;;;5096165;28;20124;-73
2023/12/12 04:13:33;;;;;;;15.30;4.27;;;5.20;99.90;;;;;;5095155;28;20135;-73
2023/12/12 04:15:58;;;;;;;11.97;3.33;;;5.20;99.90;;;;;;5096327;28;20047;-73
2023/12/12 04:18:25;;;;;;;11.50;3.70;;;5.10;99.90;;;;;;5096194;28;20050;-74
2023/12/12 04:20:50;;;;;;;14.50;4.10;;;5.10;99.90;;;;;;5096765;28;20127;-73
2023/12/12 04:23:16;;;;;;;15.23;3.90;;;5.10;99.90;;;;;;5096447;28;20362;-73
2023/12/12 04:25:42;;;;;;;12.07;3.90;;;5.00;99.90;;;;;;5096013;28;20438;-73
2023/12/12 04:28:08;;;;;;;14.70;4.77;;;5.10;99.90;;;;;;5095786;28;20044;-73
2023/12/12 04:30:34;;;;;;;19.73;4.70;;;5.10;99.90;;;;;;5095325;28;20635;-72
2023/12/12 04:32:59;;;;;;;14.43;4.40;;;5.10;99.90;;;;;;5095906;28;20048;-72
2023/12/12 04:35:25;;;;;;;19.23;5.80;;;5.10;99.90;;;;;;5095912;28;20482;-73
2023/12/12 04:37:51;;;;;;;16.90;5.33;;;5.10;99.90;;;;;;5095765;28;20085;-73
2023/12/12 04:40:16;;;;;;;14.97;5.27;;;5.20;99.90;;;;;;5095077;28;20052;-73
2023/12/12 04:42:42;;;;;;;14.03;5.07;;;5.20;99.90;;;;;;5095787;28;20093;-73
2023/12/12 04:45:08;;;;;;;13.20;4.63;;;5.20;99.90;;;;;;5095693;28;20054;-73
2023/12/12 04:47:34;;;;;;;14.27;4.17;;;5.20;99.90;;;;;;5095383;28;20482;-72
2023/12/12 04:50:00;;;;;;;19.40;5.20;;;5.20;99.90;;;;;;5095655;28;20278;-73
2023/12/12 04:52:27;;;;;;;18.50;4.63;;;5.20;99.90;;;;;;5095541;28;20127;-72
2023/12/12 04:54:53;;;;;;;23.98;7.32;;;5.20;99.90;;;;;;5095065;28;20055;-72
2023/12/12 04:57:19;;;;;;;18.37;6.77;;;5.20;99.90;;;;;;5094562;28;20480;-72
2023/12/12 04:59:45;;;;;;;18.27;7.53;;;5.10;99.90;;;;;;5112006;28;20316;-72
2023/12/12 05:02:10;;;;;;;18.43;7.67;;;5.10;99.90;;;;;;5095462;28;20051;-73
2023/12/12 05:04:37;;;;;;;20.77;7.80;;;5.10;99.90;;;;;;5094981;28;20048;-72
2023/12/12 05:07:04;;;;;;;18.83;7.30;;;5.20;99.90;;;;;;5095864;28;20052;-72
2023/12/12 05:09:29;;;;;;;18.02;6.43;;;5.10;99.90;;;;;;5095532;28;20118;-73
2023/12/12 05:11:55;;;;;;;16.27;7.23;;;5.00;99.90;;;;;;5095213;28;20470;-73
2023/12/12 05:14:21;;;;;;;16.77;7.33;;;5.00;99.90;;;;;;5094702;28;20040;-73
2023/12/12 05:16:47;;;;;;;16.08;7.88;;;4.90;99.90;;;;;;5094417;28;20040;-73
2023/12/12 05:19:12;;;;;;;16.07;7.80;;;4.90;99.90;;;;;;5095019;28;20439;-73
2023/12/12 05:21:38;;;;;;;21.80;8.37;;;4.90;99.90;;;;;;5094662;28;20040;-73
2023/12/12 05:24:05;;;;;;;13.30;7.00;;;4.90;99.90;;;;;;5095486;28;20087;-73
2023/12/12 05:26:31;;;;;;;16.52;6.25;;;4.90;99.90;;;;;;5095432;28;20440;-73
2023/12/12 05:28:57;;;;;;;16.57;7.73;;;4.90;99.90;;;;;;5094854;28;20128;-73
2023/12/12 05:31:24;;;;;;;15.30;6.57;;;4.80;99.90;;;;;;5095407;28;20079;-73
2023/12/12 05:33:50;;;;;;;22.05;7.85;;;4.90;99.90;;;;;;5094865;28;20052;-73
2023/12/12 05:36:15;;;;;;;16.73;7.67;;;4.80;99.90;;;;;;5094954;28;20047;-73
2023/12/12 05:38:41;;;;;;;18.33;7.33;;;4.70;99.90;;;;;;5094723;28;20476;-73
2023/12/12 05:41:07;;;;;;;19.73;8.77;;;4.80;99.90;;;;;;5094330;28;20047;-73
2023/12/12 05:43:32;;;;;;;15.83;7.67;;;4.70;99.90;;;;;;5094645;28;20057;-73
2023/12/12 05:45:59;;;;;;;19.87;8.37;;;4.70;99.90;;;;;;5093375;28;20455;-73
2023/12/12 05:48:24;;;;;;;19.73;8.95;;;4.60;99.90;;;;;;5093794;28;20381;-73
2023/12/12 05:50:50;;;;;;;22.97;9.17;;;4.60;99.90;;;;;;5094770;28;20101;-73
2023/12/12 05:53:16;;;;;;;21.07;9.57;;;4.50;99.90;;;;;;5094218;28;20509;-73
2023/12/12 05:55:42;;;;;;;26.00;10.03;;;4.60;99.90;;;;;;5094388;28;20046;-73
2023/12/12 05:58:07;;;;;;;19.37;8.70;;;4.60;99.90;;;;;;5094880;28;20100;-73
2023/12/12 06:00:33;;;;;;;35.47;11.83;;;4.60;99.90;;;;;;5094336;28;20495;-73
2023/12/12 06:02:59;;;;;;;29.20;10.87;;;4.60;99.90;;;;;;5093877;28;20111;-73
2023/12/12 06:05:24;;;;;;;20.83;8.47;;;4.50;99.90;;;;;;5093905;28;20070;-73
2023/12/12 06:07:50;;;;;;;22.10;10.67;;;4.50;99.90;;;;;;5094174;28;20051;-73
2023/12/12 06:10:18;;;;;;;28.73;10.93;;;4.60;99.90;;;;;;5094698;28;20136;-73
2023/12/12 06:12:44;;;;;;;22.10;9.05;;;4.50;99.90;;;;;;5093725;28;20079;-73
2023/12/12 06:15:10;;;;;;;29.38;10.02;;;4.50;99.90;;;;;;5094649;28;20054;-73
2023/12/12 06:17:38;;;;;;;24.50;9.87;;;4.50;99.90;;;;;;5094279;28;20052;-73
2023/12/12 06:20:04;;;;;;;20.52;8.57;;;4.50;99.90;;;;;;5093067;28;20426;-73
2023/12/12 06:22:30;;;;;;;19.60;8.57;;;4.50;99.90;;;;;;5095062;28;20054;-73
2023/12/12 06:24:56;;;;;;;21.23;9.93;;;4.60;99.90;;;;;;5093721;28;20123;-73
2023/12/12 06:27:22;;;;;;;19.97;8.37;;;4.50;99.90;;;;;;5093625;28;20052;-73
2023/12/12 06:29:49;;;;;;;28.00;11.23;;;4.60;99.90;;;;;;5093873;28;20098;-73
2023/12/12 06:32:15;;;;;;;32.65;11.95;;;4.60;99.90;;;;;;5093842;28;20054;-73
2023/12/12 06:34:43;;;;;;;21.55;9.70;;;4.60;99.90;;;;;;5094115;28;20040;-73
2023/12/12 06:37:09;;;;;;;35.75;12.77;;;4.60;99.90;;;;;;5093779;28;20127;-73
2023/12/12 06:39:35;;;;;;;23.97;11.17;;;4.60;99.90;;;;;;5093965;28;20131;-73
2023/12/12 06:42:00;;;;;;;32.37;12.27;;;4.60;99.90;;;;;;5093753;28;20044;-73
2023/12/12 06:44:26;;;;;;;28.63;11.60;;;4.60;99.90;;;;;;5092803;28;20471;-73
2023/12/12 06:46:52;;;;;;;23.37;10.93;;;4.60;99.90;;;;;;5093344;28;20036;-73
2023/12/12 06:49:17;;;;;;;53.40;15.87;;;4.60;99.90;;;;;;5092759;28;20131;-73
2023/12/12 06:51:43;;;;;;;44.80;15.77;;;4.70;99.90;;;;;;5093966;28;20039;-73
2023/12/12 06:54:08;;;;;;;47.47;16.70;;;4.70;99.90;;;;;;5093735;28;20056;-73
2023/12/12 06:56:34;;;;;;;55.13;16.90;;;4.80;99.90;;;;;;5093588;28;20099;-73
2023/12/12 06:59:00;;;;;;;48.93;15.67;;;4.70;99.90;;;;;;5093571;28;20040;-73
2023/12/12 07:01:26;;;;;;;69.77;19.33;;;4.80;99.90;;;;;;5093264;28;20496;-73
2023/12/12 07:03:51;;;;;;;71.43;19.37;;;4.80;99.90;;;;;;5093630;28;20105;-73
2023/12/12 07:06:18;;;;;;;65.50;18.10;;;4.90;99.90;;;;;;5092344;28;20040;-73
2023/12/12 07:08:44;;;;;;;65.93;18.70;;;4.90;99.90;;;;;;5093541;28;20145;-73
2023/12/12 07:11:11;;;;;;;78.03;20.53;;;4.90;99.90;;;;;;5093467;28;20091;-73
2023/12/12 07:13:37;;;;;;;88.70;20.45;;;5.00;99.90;;;;;;5093390;28;20044;-73
2023/12/12 07:16:04;;;;;;;243.17;29.60;;;5.00;99.90;;;;;;5093436;28;20126;-73
2023/12/12 07:18:30;;;;;;;99.90;22.88;;;5.00;99.90;;;;;;5093394;28;20274;-73
2023/12/12 07:20:57;;;;;;;168.70;27.50;;;5.10;99.90;;;;;;5093354;28;20046;-73
2023/12/12 07:23:23;;;;;;;192.85;27.73;;;5.20;99.90;;;;;;5093436;28;20401;-72
2023/12/12 07:25:49;;;;;;;276.10;29.33;;;5.20;99.90;;;;;;5093290;28;20040;-73
2023/12/12 07:28:15;;;;;;;322.00;36.17;;;5.20;99.90;;;;;;5093346;28;20121;-73
2023/12/12 07:30:53;;;;;;;453.43;42.83;;;5.20;99.90;;;;;;5093215;28;20286;-73
2023/12/12 07:33:19;;;;;;;364.15;35.70;;;5.20;99.90;;;;;;5093646;28;20477;-72
2023/12/12 07:35:45;;;;;;;614.88;49.58;;;5.20;99.90;;;;;;5093081;28;20477;-73
2023/12/12 07:38:10;;;;;;;374.10;36.97;;;5.30;99.90;;;;;;5093419;28;20131;-73
2023/12/12 07:40:36;;;;;;;546.63;46.83;;;5.30;99.90;;;;;;5096995;28;20040;-73
2023/12/12 07:43:02;;;;;;;562.30;47.57;;;5.30;99.90;;;;;;5096949;28;20080;-73
2023/12/12 07:45:27;;;;;;;421.67;39.83;;;5.40;99.90;;;;;;5096747;28;20537;-74
2023/12/12 07:47:53;;;;;;;408.03;38.63;;;5.40;99.90;;;;;;5097054;28;20051;-73
2023/12/12 07:50:19;;;;;;;310.47;36.27;;;5.40;99.90;;;;;;5097344;28;20044;-73
2023/12/12 07:52:44;;;;;;;508.60;43.43;;;5.40;99.90;;;;;;5096772;28;20058;-73
2023/12/12 07:55:10;;;;;;;518.90;42.27;;;5.40;99.90;;;;;;5096767;28;20502;-73
2023/12/12 07:57:36;;;;;;;321.93;34.83;;;5.30;99.90;;;;;;5096662;28;20080;-73
2023/12/12 08:00:06;;;;;;;425.17;42.60;;;5.30;99.90;;;;;;5097165;28;20365;-73
2023/12/12 08:02:32;;;;;;;280.42;31.20;;;5.30;99.90;;;;;;5096572;28;20669;-73
2023/12/12 08:04:58;;;;;;;332.60;35.10;;;5.40;99.90;;;;;;5097001;28;20074;-73
2023/12/12 08:07:24;;;;;;;579.30;48.42;;;5.40;99.90;;;;;;5096144;28;20781;-72
2023/12/12 08:09:49;;;;;;;559.23;44.10;;;5.40;99.90;;;;;;5096948;28;20076;-73
2023/12/12 08:12:16;;;;;;;600.90;48.70;;;5.40;99.90;;;;;;5096086;28;20066;-72
2023/12/12 08:14:42;;;;;;;374.67;37.90;;;5.50;99.90;;;;;;5096259;28;20472;-72
2023/12/12 08:17:08;;;;;;;530.17;46.07;;;5.50;99.90;;;;;;5096320;28;20288;-72
2023/12/12 08:19:33;;;;;;;418.07;38.53;;;5.50;99.90;;;;;;5096171;28;20130;-72
2023/12/12 08:21:59;;;;;;;404.67;40.07;;;5.40;99.90;;;;;;5096202;28;20124;-73
2023/12/12 08:24:25;;;;;;;403.07;43.20;;;5.50;99.90;;;;;;5095880;28;20052;-72
2023/12/12 08:26:50;;;;;;;418.73;39.83;;;5.50;99.90;;;;;;5095972;28;20048;-73
2023/12/12 08:29:16;;;;;;;403.90;40.17;;;5.50;99.90;;;;;;5094886;28;20086;-74
2023/12/12 08:31:42;;;;;;;312.20;38.77;;;5.60;99.90;;;;;;5096045;28;20063;-73
2023/12/12 08:34:08;;;;;;;338.83;40.27;;;5.50;99.90;;;;;;5095963;28;20054;-73
2023/12/12 08:36:34;;;;;;;438.10;43.80;;;5.50;99.90;;;;;;5096493;28;20127;-73
2023/12/12 08:39:00;;;;;;;361.33;42.33;;;5.60;99.90;;;;;;5095900;28;20284;-72
2023/12/12 08:41:33;;;;;;;287.35;36.75;;;5.60;99.90;;;;;;5096710;28;20282;-72
2023/12/12 08:43:59;;;;;;;403.10;44.37;;;5.60;99.90;;;;;;5095724;28;20407;-72
2023/12/12 08:46:26;;;;;;;286.63;40.17;;;5.50;99.90;;;;;;5095621;28;20302;-72
2023/12/12 08:48:59;;;;;;;370.70;45.60;;;5.60;99.90;;;;;;5095685;28;20317;-73
2023/12/12 08:51:26;;;;;;;377.10;46.57;;;5.60;99.90;;;;;;5094594;28;20286;-72
2023/12/12 08:53:52;;;;;;;359.95;46.83;;;5.60;99.90;;;;;;5095115;28;20373;-73
2023/12/12 08:56:18;;;;;;;391.63;49.90;;;5.60;99.90;;;;;;5095566;28;20532;-72
2023/12/12 08:58:46;;;;;;;311.40;45.72;;;5.60;99.90;;;;;;5095524;28;20078;-73
2023/12/12 09:01:13;;;;;;;292.83;47.63;;;5.60;99.90;;;;;;5095462;28;20097;-72
2023/12/12 09:03:39;;;;;;;378.20;52.10;;;5.60;99.90;;;;;;5094670;28;20290;-74
2023/12/12 09:06:05;;;;;;;305.57;49.70;;;5.60;99.90;;;;;;5095275;28;20710;-73
2023/12/12 09:08:31;;;;;;;317.70;51.08;;;5.60;99.90;;;;;;5095358;28;20040;-72
2023/12/12 09:10:58;;;;;;;317.50;54.17;;;5.60;99.90;;;;;;5096051;28;20050;-72
2023/12/12 09:13:25;;;;;;;291.38;54.88;;;5.60;99.90;;;;;;5095768;28;20109;-72
2023/12/12 09:15:50;;;;;;;219.93;48.63;;;5.60;99.90;;;;;;5095134;28;20093;-72
2023/12/12 09:18:16;;;;;;;237.37;49.23;;;5.60;99.90;;;;;;5095056;28;20749;-72
2023/12/12 09:20:42;;;;;;;319.33;56.57;;;5.60;99.90;;;;;;5095035;28;20048;-72
2023/12/12 09:23:07;;;;;;;315.90;58.00;;;5.70;99.90;;;;;;5095554;28;20048;-72
2023/12/12 09:25:33;;;;;;;376.83;58.60;;;5.60;99.90;;;;;;5095670;28;20350;-72
2023/12/12 09:27:59;;;;;;;372.37;58.20;;;5.70;99.90;;;;;;5094903;28;20040;-72
2023/12/12 09:30:24;;;;;;;276.57;53.60;;;5.70;99.90;;;;;;5094934;28;20056;-72
2023/12/12 09:32:50;;;;;;;381.80;59.63;;;5.70;99.90;;;;;;5094822;28;20048;-72
2023/12/12 09:35:16;;;;;;;279.90;51.33;;;5.70;99.90;;;;;;5094697;28;20044;-72
2023/12/12 09:37:42;;;;;;;243.77;49.80;;;5.70;99.90;;;;;;5095221;28;20066;-74
2023/12/12 09:40:09;;;;;;;220.37;46.17;;;5.70;99.90;;;;;;5094616;28;20043;-73
2023/12/12 09:42:35;;;;;;;241.70;47.90;;;5.70;99.90;;;;;;5094609;28;20278;-72
2023/12/12 09:45:03;;;;;;;175.13;42.87;;;5.70;99.90;;;;;;5094447;28;20159;-74
2023/12/12 09:47:31;;;;;;;158.75;40.47;;;5.60;99.90;;;;;;5093339;28;20044;-74
2023/12/12 09:50:01;;;;;;;227.93;40.67;;;5.70;99.90;;;;;;5093456;28;20139;-74
2023/12/12 09:52:31;;;;;;;230.80;40.28;;;5.60;99.90;;;;;;5094448;28;20098;-74
2023/12/12 09:54:59;;;;;;;201.93;39.22;;;5.60;99.90;;;;;;5093498;28;20060;-74
2023/12/12 09:57:27;;;;;;;145.82;35.38;;;5.50;99.90;;;;;;5094319;28;20069;-74
2023/12/12 09:59:53;;;;;;;269.97;47.57;;;5.50;99.90;;;;;;5094167;28;20121;-74
2023/12/12 10:02:31;;;;;;;187.43;41.13;;;5.50;99.90;;;;;;5093459;28;20281;-75
2023/12/12 10:04:57;;;;;;;173.85;36.88;;;5.40;99.90;;;;;;5094835;28;20150;-75
2023/12/12 10:07:24;;;;;;;180.57;41.58;;;5.50;99.90;;;;;;5093779;28;20040;-76
2023/12/12 10:09:50;;;;;;;204.27;43.73;;;5.50;99.90;;;;;;5092748;28;20116;-76
2023/12/12 10:12:17;;;;;;;242.97;44.57;;;5.50;99.90;;;;;;5094057;28;20285;-77
2023/12/12 10:14:47;;;;;;;192.73;42.70;;;5.40;99.90;;;;;;5094067;28;20079;-76
2023/12/12 10:17:14;;;;;;;162.88;42.97;;;5.50;99.90;;;;;;5094889;28;20052;-76
2023/12/12 10:19:40;;;;;;;218.13;46.30;;;5.50;99.90;;;;;;5093270;28;20044;-76
2023/12/12 10:22:08;;;;;;;160.00;40.33;;;5.50;99.90;;;;;;5093907;28;20131;-74
2023/12/12 10:24:37;;;;;;;166.43;40.77;;;5.50;99.90;;;;;;5093925;28;20282;-75
2023/12/12 10:27:04;;;;;;;132.47;39.50;;;5.50;99.90;;;;;;5093851;28;20294;-74
2023/12/12 10:29:31;;;;;;;141.53;45.33;;;5.60;99.90;;;;;;5092964;28;20634;-74
2023/12/12 10:32:02;;;;;;;122.17;39.60;;;5.60;99.90;;;;;;5094423;28;20278;-72
2023/12/12 10:34:27;;;;;;;137.87;41.27;;;5.60;99.90;;;;;;5092871;28;20297;-74
2023/12/12 10:36:54;;;;;;;108.87;39.53;;;5.50;99.90;;;;;;5094336;28;20282;-73
2023/12/12 10:39:20;;;;;;;145.38;45.80;;;5.60;99.90;;;;;;5093806;28;20051;-74
2023/12/12 10:41:55;;;;;;;108.33;41.10;;;5.60;99.90;;;;;;5093613;28;20044;-74
2023/12/12 10:44:28;;;;;;;;;;;5.70;99.90;;;;;;5095020;28;20353;-74
2023/12/12 10:46:54;;;;;;;94.93;38.42;;;5.70;99.90;;;;;;5094223;28;20069;-74
2023/12/12 10:49:31;;;;;;;94.07;39.58;;;5.80;99.90;;;;;;5093659;28;20476;-74
2023/12/12 10:52:01;;;;;;;94.67;39.50;;;5.80;99.90;;;;;;5093735;28;20140;-75
2023/12/12 10:54:28;;;;;;;82.50;38.37;;;5.90;99.90;;;;;;5093794;28;20789;-74
2023/12/12 10:56:55;;;;;;;88.93;38.40;;;6.00;99.90;;;;;;5093561;28;20275;-74
2023/12/12 10:59:23;;;;;;;89.37;38.93;;;6.00;99.90;;;;;;5093631;28;20630;-74
2023/12/12 11:01:50;;;;;;;79.00;37.67;;;6.10;99.90;;;;;;5093868;28;20328;-74
2023/12/12 11:04:17;;;;;;;73.70;34.53;;;6.20;99.90;;;;;;5093520;28;20274;-74
2023/12/12 11:06:43;;;;;;;45.80;28.30;;;6.20;99.90;;;;;;5094021;28;20337;-74
2023/12/12 11:09:09;;;;;;;52.47;29.83;;;6.20;99.90;;;;;;5092040;28;20779;-74
2023/12/12 11:11:39;;;;;;;46.73;28.67;;;6.20;99.90;;;;;;5093142;28;20286;-74
2023/12/12 11:14:08;;;;;;;54.57;29.83;;;6.20;99.90;;;;;;5094812;28;20274;-74
2023/12/12 11:16:34;;;;;;;48.80;29.13;;;6.20;99.90;;;;;;5096746;28;20293;-74
2023/12/12 11:19:01;;;;;;;50.30;28.87;;;6.20;99.90;;;;;;5097327;28;20289;-74
2023/12/12 11:21:47;;;;;;;50.33;28.50;;;6.20;99.90;;;;;;5097603;28;20459;-74
2023/12/12 11:24:14;;;;;;;43.15;26.15;;;6.30;99.90;;;;;;5096586;28;20354;-74
2023/12/12 11:26:42;;;;;;;52.70;29.33;;;6.30;99.90;;;;;;5097138;28;20090;-74
2023/12/12 11:29:10;;;;;;;42.97;26.87;;;6.30;99.90;;;;;;5097200;28;20286;-74
2023/12/12 11:31:37;;;;;;;45.10;27.30;;;6.30;99.90;;;;;;5097161;28;20290;-74
2023/12/12 11:34:10;;;;;;;40.60;27.17;;;6.30;99.90;;;;;;5097087;28;20270;-74
2023/12/12 11:36:51;;;;;;;44.17;26.50;;;6.40;99.90;;;;;;5097085;28;20278;-74
2023/12/12 11:39:30;;;;;;;47.57;28.80;;;6.40;99.90;;;;;;5096271;28;20479;-74
2023/12/12 11:42:02;;;;;;;42.83;26.27;;;6.40;99.90;;;;;;5096334;28;20298;-75
2023/12/12 11:44:50;;;;;;;39.67;26.63;;;6.40;99.90;;;;;;5096933;28;20365;-74
2023/12/12 11:47:21;;;;;;;45.67;26.80;;;6.50;99.90;;;;;;5096931;28;20282;-74
2023/12/12 11:49:47;;;;;;;52.53;29.13;;;6.50;99.90;;;;;;5096212;28;20309;-74
2023/12/12 11:52:38;;;;;;;41.80;26.70;;;6.50;99.90;;;;;;5097561;28;20347;-74
2023/12/12 11:55:18;;;;;;;54.63;29.40;;;6.50;99.90;;;;;;5096370;28;20298;-75
2023/12/12 11:57:45;;;;;;;53.10;30.10;;;6.60;99.90;;;;;;5096058;28;20347;-75
2023/12/12 12:00:14;;;;;;;56.50;30.13;;;6.50;99.90;;;;;;5095960;28;20363;-74
2023/12/12 12:02:40;;;;;;;58.77;30.63;;;6.50;99.90;;;;;;5096509;28;20343;-73
2023/12/12 12:05:07;;;;;;;58.70;30.53;;;6.50;99.90;;;;;;5096937;28;20652;-75
2023/12/12 12:07:32;;;;;;;63.90;32.33;;;6.60;99.90;;;;;;5097283;28;20361;-74
2023/12/12 12:09:58;;;;;;;67.93;34.00;;;6.60;99.90;;;;;;5096397;28;20708;-73
2023/12/12 12:12:24;;;;;;;91.20;37.27;;;6.60;99.90;;;;;;5096000;28;20052;-73
2023/12/12 12:14:50;;;;;;;73.87;37.30;;;6.50;99.90;;;;;;5096278;28;20142;-73
2023/12/12 12:17:15;;;;;;;82.00;41.83;;;6.60;99.90;;;;;;5095290;28;20086;-73
2023/12/12 12:19:41;;;;;;;81.77;38.50;;;6.60;99.90;;;;;;5095341;28;20055;-73
2023/12/12 12:22:11;;;;;;;65.93;35.37;;;6.60;99.90;;;;;;5096193;28;20092;-73
2023/12/12 12:24:47;;;;;;;71.83;36.70;;;6.60;99.90;;;;;;5096033;28;20468;-72
2023/12/12 12:27:16;;;;;;;70.63;37.07;;;6.60;99.90;;;;;;5096016;28;20298;-74
2023/12/12 12:29:41;;;;;;;92.03;40.67;;;6.60;99.90;;;;;;5096373;28;20281;-74
2023/12/12 12:32:15;;;;;;;82.47;40.53;;;6.60;99.90;;;;;;5096006;28;20746;-78
2023/12/12 12:34:41;;;;;;;91.77;41.27;;;6.60;99.90;;;;;;5096022;28;20039;-73
2023/12/12 12:37:27;;;;;;;72.30;37.23;;;6.60;99.90;;;;;;5095927;28;20278;-74